sensor_id;sensor_type;location;lat;lon;timestamp;temperature;humidity
62464;SHT31;48512;48.552;9.380;2024-02-15T00:00:16;9.29;87.95
62464;SHT31;48512;48.552;9.380;2024-02-15T00:02:43;9.33;88.02
62464;SHT31;48512;48.552;9.380;2024-02-15T00:05:11;9.30;88.01
62464;SHT31;48512;48.552;9.380;2024-02-15T00:07:38;9.26;88.04
62464;SHT31;48512;48.552;9.380;2024-02-15T00:10:05;9.25;88.11
62464;SHT31;48512;48.552;9.380;2024-02-15T00:12:31;9.18;88.41
62464;SHT31;48512;48.552;9.380;2024-02-15T00:14:57;9.16;88.62
62464;SHT31;48512;48.552;9.380;2024-02-15T00:17:25;9.12;88.72
62464;SHT31;48512;48.552;9.380;2024-02-15T00:19:51;9.11;88.83
62464;SHT31;48512;48.552;9.380;2024-02-15T00:22:17;9.09;88.96
62464;SHT31;48512;48.552;9.380;2024-02-15T00:24:43;9.05;89.07
62464;SHT31;48512;48.552;9.380;2024-02-15T00:27:11;9.01;89.24
62464;SHT31;48512;48.552;9.380;2024-02-15T00:29:37;9.02;89.17
62464;SHT31;48512;48.552;9.380;2024-02-15T00:32:03;9.04;89.22
62464;SHT31;48512;48.552;9.380;2024-02-15T00:34:31;9.02;89.20
62464;SHT31;48512;48.552;9.380;2024-02-15T00:36:58;9.07;89.16
62464;SHT31;48512;48.552;9.380;2024-02-15T00:39:24;9.05;89.22
62464;SHT31;48512;48.552;9.380;2024-02-15T00:41:50;9.08;89.22
62464;SHT31;48512;48.552;9.380;2024-02-15T00:44:16;9.09;89.27
62464;SHT31;48512;48.552;9.380;2024-02-15T00:46:43;9.14;89.18
62464;SHT31;48512;48.552;9.380;2024-02-15T00:49:09;9.15;89.15
62464;SHT31;48512;48.552;9.380;2024-02-15T00:51:36;9.16;89.25
62464;SHT31;48512;48.552;9.380;2024-02-15T00:54:03;9.19;89.11
62464;SHT31;48512;48.552;9.380;2024-02-15T00:56:29;9.22;89.18
62464;SHT31;48512;48.552;9.380;2024-02-15T00:59:01;9.20;89.14
62464;SHT31;48512;48.552;9.380;2024-02-15T01:01:29;9.25;89.09
62464;SHT31;48512;48.552;9.380;2024-02-15T01:03:55;9.26;88.91
62464;SHT31;48512;48.552;9.380;2024-02-15T01:06:21;9.30;88.78
62464;SHT31;48512;48.552;9.380;2024-02-15T01:08:48;9.61;87.44
62464;SHT31;48512;48.552;9.380;2024-02-15T01:11:14;9.73;87.18
62464;SHT31;48512;48.552;9.380;2024-02-15T01:13:40;9.83;86.92
62464;SHT31;48512;48.552;9.380;2024-02-15T01:16:07;9.85;86.83
62464;SHT31;48512;48.552;9.380;2024-02-15T01:18:35;9.91;86.55
62464;SHT31;48512;48.552;9.380;2024-02-15T01:21:01;9.95;86.54
62464;SHT31;48512;48.552;9.380;2024-02-15T01:23:28;10.09;86.02
62464;SHT31;48512;48.552;9.380;2024-02-15T01:25:54;10.12;85.93
62464;SHT31;48512;48.552;9.380;2024-02-15T01:28:20;10.15;85.96
62464;SHT31;48512;48.552;9.380;2024-02-15T01:30:47;10.11;85.97
62464;SHT31;48512;48.552;9.380;2024-02-15T01:33:14;10.14;85.88
62464;SHT31;48512;48.552;9.380;2024-02-15T01:35:40;10.12;85.71
62464;SHT31;48512;48.552;9.380;2024-02-15T01:38:06;10.09;85.74
62464;SHT31;48512;48.552;9.380;2024-02-15T01:40:32;10.06;85.89
62464;SHT31;48512;48.552;9.380;2024-02-15T01:42:58;10.01;86.00
62464;SHT31;48512;48.552;9.380;2024-02-15T01:45:26;9.97;86.00
62464;SHT31;48512;48.552;9.380;2024-02-15T01:47:54;9.93;86.11
62464;SHT31;48512;48.552;9.380;2024-02-15T01:50:20;9.90;86.16
62464;SHT31;48512;48.552;9.380;2024-02-15T01:52:47;9.78;86.31
62464;SHT31;48512;48.552;9.380;2024-02-15T01:55:17;9.74;86.50
62464;SHT31;48512;48.552;9.380;2024-02-15T01:57:45;9.64;86.63
62464;SHT31;48512;48.552;9.380;2024-02-15T02:00:18;9.56;86.79
62464;SHT31;48512;48.552;9.380;2024-02-15T02:02:48;9.46;86.95
62464;SHT31;48512;48.552;9.380;2024-02-15T02:05:14;9.36;87.10
62464;SHT31;48512;48.552;9.380;2024-02-15T02:07:41;9.28;87.22
62464;SHT31;48512;48.552;9.380;2024-02-15T02:10:07;9.16;87.37
62464;SHT31;48512;48.552;9.380;2024-02-15T02:12:35;9.07;87.50
62464;SHT31;48512;48.552;9.380;2024-02-15T02:15:01;8.95;87.68
62464;SHT31;48512;48.552;9.380;2024-02-15T02:17:27;8.87;87.94
62464;SHT31;48512;48.552;9.380;2024-02-15T02:19:54;8.81;88.08
62464;SHT31;48512;48.552;9.380;2024-02-15T02:22:20;8.84;88.36
62464;SHT31;48512;48.552;9.380;2024-02-15T02:27:32;8.63;88.38
62464;SHT31;48512;48.552;9.380;2024-02-15T02:29:58;8.63;88.48
62464;SHT31;48512;48.552;9.380;2024-02-15T02:32:26;8.53;88.69
62464;SHT31;48512;48.552;9.380;2024-02-15T02:34:52;8.52;88.97
62464;SHT31;48512;48.552;9.380;2024-02-15T02:37:24;8.49;89.15
62464;SHT31;48512;48.552;9.380;2024-02-15T02:39:50;8.47;89.06
62464;SHT31;48512;48.552;9.380;2024-02-15T02:42:16;8.52;89.02
62464;SHT31;48512;48.552;9.380;2024-02-15T02:44:43;8.46;89.06
62464;SHT31;48512;48.552;9.380;2024-02-15T02:47:09;8.39;88.86
62464;SHT31;48512;48.552;9.380;2024-02-15T02:49:35;8.34;88.98
62464;SHT31;48512;48.552;9.380;2024-02-15T02:52:01;8.26;89.01
62464;SHT31;48512;48.552;9.380;2024-02-15T02:54:27;8.13;89.15
62464;SHT31;48512;48.552;9.380;2024-02-15T02:56:55;8.07;89.33
62464;SHT31;48512;48.552;9.380;2024-02-15T02:59:21;7.98;89.51
62464;SHT31;48512;48.552;9.380;2024-02-15T03:01:48;7.96;89.92
62464;SHT31;48512;48.552;9.380;2024-02-15T03:04:17;7.95;89.75
62464;SHT31;48512;48.552;9.380;2024-02-15T03:06:44;7.88;89.53
62464;SHT31;48512;48.552;9.380;2024-02-15T03:09:11;7.82;89.50
62464;SHT31;48512;48.552;9.380;2024-02-15T03:11:40;7.78;89.46
62464;SHT31;48512;48.552;9.380;2024-02-15T03:14:06;7.74;89.87
62464;SHT31;48512;48.552;9.380;2024-02-15T03:16:32;7.67;89.76
62464;SHT31;48512;48.552;9.380;2024-02-15T03:19:00;7.63;89.84
62464;SHT31;48512;48.552;9.380;2024-02-15T03:21:28;7.61;90.23
62464;SHT31;48512;48.552;9.380;2024-02-15T03:23:55;7.53;90.57
62464;SHT31;48512;48.552;9.380;2024-02-15T03:26:31;7.54;90.55
62464;SHT31;48512;48.552;9.380;2024-02-15T03:29:06;7.51;90.49
62464;SHT31;48512;48.552;9.380;2024-02-15T03:31:35;7.50;90.56
62464;SHT31;48512;48.552;9.380;2024-02-15T03:34:03;7.48;90.64
62464;SHT31;48512;48.552;9.380;2024-02-15T03:36:30;7.58;91.04
62464;SHT31;48512;48.552;9.380;2024-02-15T03:38:56;7.64;91.14
62464;SHT31;48512;48.552;9.380;2024-02-15T03:41:22;7.70;91.06
62464;SHT31;48512;48.552;9.380;2024-02-15T03:43:49;7.73;91.03
62464;SHT31;48512;48.552;9.380;2024-02-15T03:46:15;7.77;91.19
62464;SHT31;48512;48.552;9.380;2024-02-15T03:48:43;7.78;91.01
62464;SHT31;48512;48.552;9.380;2024-02-15T03:51:18;7.78;90.95
62464;SHT31;48512;48.552;9.380;2024-02-15T03:53:44;7.79;90.93
62464;SHT31;48512;48.552;9.380;2024-02-15T03:56:10;7.78;90.84
62464;SHT31;48512;48.552;9.380;2024-02-15T03:58:38;7.79;90.86
62464;SHT31;48512;48.552;9.380;2024-02-15T04:01:04;7.78;91.05
62464;SHT31;48512;48.552;9.380;2024-02-15T04:03:36;7.79;91.23
62464;SHT31;48512;48.552;9.380;2024-02-15T04:06:02;7.81;91.36
62464;SHT31;48512;48.552;9.380;2024-02-15T04:08:28;7.84;91.53
62464;SHT31;48512;48.552;9.380;2024-02-15T04:10:54;7.89;91.64
62464;SHT31;48512;48.552;9.380;2024-02-15T04:13:20;7.99;91.69
62464;SHT31;48512;48.552;9.380;2024-02-15T04:15:46;8.05;91.43
62464;SHT31;48512;48.552;9.380;2024-02-15T04:18:15;8.12;90.99
62464;SHT31;48512;48.552;9.380;2024-02-15T04:20:41;8.22;90.77
62464;SHT31;48512;48.552;9.380;2024-02-15T04:23:12;8.23;90.76
62464;SHT31;48512;48.552;9.380;2024-02-15T04:25:38;8.23;90.68
62464;SHT31;48512;48.552;9.380;2024-02-15T04:28:06;8.22;90.69
62464;SHT31;48512;48.552;9.380;2024-02-15T04:30:35;8.25;90.67
62464;SHT31;48512;48.552;9.380;2024-02-15T04:33:04;8.26;90.66
62464;SHT31;48512;48.552;9.380;2024-02-15T04:35:34;8.22;90.84
62464;SHT31;48512;48.552;9.380;2024-02-15T04:38:01;8.21;91.00
62464;SHT31;48512;48.552;9.380;2024-02-15T04:40:27;8.22;90.89
62464;SHT31;48512;48.552;9.380;2024-02-15T04:42:53;8.23;91.04
62464;SHT31;48512;48.552;9.380;2024-02-15T04:45:19;8.28;90.92
62464;SHT31;48512;48.552;9.380;2024-02-15T04:47:57;8.30;90.88
62464;SHT31;48512;48.552;9.380;2024-02-15T04:50:28;8.33;90.77
62464;SHT31;48512;48.552;9.380;2024-02-15T04:52:55;8.32;90.72
62464;SHT31;48512;48.552;9.380;2024-02-15T04:55:21;8.29;90.73
62464;SHT31;48512;48.552;9.380;2024-02-15T04:57:49;8.29;90.70
62464;SHT31;48512;48.552;9.380;2024-02-15T05:00:22;8.36;90.67
62464;SHT31;48512;48.552;9.380;2024-02-15T05:02:48;8.34;90.56
62464;SHT31;48512;48.552;9.380;2024-02-15T05:05:15;8.39;90.57
62464;SHT31;48512;48.552;9.380;2024-02-15T05:07:42;8.34;90.46
62464;SHT31;48512;48.552;9.380;2024-02-15T05:10:09;8.34;90.38
62464;SHT31;48512;48.552;9.380;2024-02-15T05:12:37;8.39;90.25
62464;SHT31;48512;48.552;9.380;2024-02-15T05:15:03;8.36;90.24
62464;SHT31;48512;48.552;9.380;2024-02-15T05:17:37;8.34;90.26
62464;SHT31;48512;48.552;9.380;2024-02-15T05:20:08;8.28;90.40
62464;SHT31;48512;48.552;9.380;2024-02-15T05:22:37;8.26;90.39
62464;SHT31;48512;48.552;9.380;2024-02-15T05:25:05;8.25;90.26
62464;SHT31;48512;48.552;9.380;2024-02-15T05:27:34;8.21;90.19
62464;SHT31;48512;48.552;9.380;2024-02-15T05:30:00;8.19;90.12
62464;SHT31;48512;48.552;9.380;2024-02-15T05:32:26;8.19;90.08
62464;SHT31;48512;48.552;9.380;2024-02-15T05:34:53;8.15;89.90
62464;SHT31;48512;48.552;9.380;2024-02-15T05:37:20;8.09;89.93
62464;SHT31;48512;48.552;9.380;2024-02-15T05:39:48;8.05;89.80
62464;SHT31;48512;48.552;9.380;2024-02-15T05:42:17;8.01;89.90
62464;SHT31;48512;48.552;9.380;2024-02-15T05:44:43;7.95;89.90
62464;SHT31;48512;48.552;9.380;2024-02-15T05:47:09;7.94;89.87
62464;SHT31;48512;48.552;9.380;2024-02-15T05:49:37;7.86;89.91
62464;SHT31;48512;48.552;9.380;2024-02-15T05:52:03;7.78;90.04
62464;SHT31;48512;48.552;9.380;2024-02-15T05:54:29;7.74;90.17
62464;SHT31;48512;48.552;9.380;2024-02-15T05:56:55;7.71;90.17
62464;SHT31;48512;48.552;9.380;2024-02-15T05:59:24;7.73;90.14
62464;SHT31;48512;48.552;9.380;2024-02-15T06:01:50;7.66;89.78
62464;SHT31;48512;48.552;9.380;2024-02-15T06:04:16;7.54;89.86
62464;SHT31;48512;48.552;9.380;2024-02-15T06:06:42;7.53;89.91
62464;SHT31;48512;48.552;9.380;2024-02-15T06:09:08;7.50;89.83
62464;SHT31;48512;48.552;9.380;2024-02-15T06:11:34;7.50;89.92
62464;SHT31;48512;48.552;9.380;2024-02-15T06:14:03;7.43;89.83
62464;SHT31;48512;48.552;9.380;2024-02-15T06:16:29;7.39;89.88
62464;SHT31;48512;48.552;9.380;2024-02-15T06:18:55;7.40;89.85
62464;SHT31;48512;48.552;9.380;2024-02-15T06:21:21;7.37;89.66
62464;SHT31;48512;48.552;9.380;2024-02-15T06:23:47;7.31;89.63
62464;SHT31;48512;48.552;9.380;2024-02-15T06:26:15;7.27;89.88
62464;SHT31;48512;48.552;9.380;2024-02-15T06:28:42;7.20;89.95
62464;SHT31;48512;48.552;9.380;2024-02-15T06:31:27;7.13;90.14
62464;SHT31;48512;48.552;9.380;2024-02-15T06:34:11;7.08;90.31
62464;SHT31;48512;48.552;9.380;2024-02-15T06:36:56;7.05;90.26
62464;SHT31;48512;48.552;9.380;2024-02-15T06:39:41;7.00;90.23
62464;SHT31;48512;48.552;9.380;2024-02-15T06:42:08;6.96;90.35
62464;SHT31;48512;48.552;9.380;2024-02-15T06:44:36;6.93;90.53
62464;SHT31;48512;48.552;9.380;2024-02-15T06:47:02;6.88;90.76
62464;SHT31;48512;48.552;9.380;2024-02-15T06:49:28;6.88;90.67
62464;SHT31;48512;48.552;9.380;2024-02-15T06:51:54;6.91;90.55
62464;SHT31;48512;48.552;9.380;2024-02-15T06:54:21;6.88;90.52
62464;SHT31;48512;48.552;9.380;2024-02-15T06:56:48;6.88;90.60
62464;SHT31;48512;48.552;9.380;2024-02-15T06:59:14;6.85;90.49
62464;SHT31;48512;48.552;9.380;2024-02-15T07:01:42;6.88;90.54
62464;SHT31;48512;48.552;9.380;2024-02-15T07:04:09;6.89;90.51
62464;SHT31;48512;48.552;9.380;2024-02-15T07:06:38;6.93;90.35
62464;SHT31;48512;48.552;9.380;2024-02-15T07:09:05;7.00;90.25
62464;SHT31;48512;48.552;9.380;2024-02-15T07:11:36;7.05;90.16
62464;SHT31;48512;48.552;9.380;2024-02-15T07:14:02;7.06;90.04
62464;SHT31;48512;48.552;9.380;2024-02-15T07:16:30;7.05;90.12
62464;SHT31;48512;48.552;9.380;2024-02-15T07:18:56;7.06;90.24
62464;SHT31;48512;48.552;9.380;2024-02-15T07:21:22;7.06;90.28
62464;SHT31;48512;48.552;9.380;2024-02-15T07:23:53;7.05;90.37
62464;SHT31;48512;48.552;9.380;2024-02-15T07:26:21;7.03;90.57
62464;SHT31;48512;48.552;9.380;2024-02-15T07:28:59;7.02;90.97
62464;SHT31;48512;48.552;9.380;2024-02-15T07:31:28;7.06;91.02
62464;SHT31;48512;48.552;9.380;2024-02-15T07:33:55;7.09;90.97
62464;SHT31;48512;48.552;9.380;2024-02-15T07:36:22;7.13;91.02
62464;SHT31;48512;48.552;9.380;2024-02-15T07:38:52;7.20;90.89
62464;SHT31;48512;48.552;9.380;2024-02-15T07:41:20;7.29;90.73
62464;SHT31;48512;48.552;9.380;2024-02-15T07:43:48;7.36;90.61
62464;SHT31;48512;48.552;9.380;2024-02-15T07:46:15;7.47;90.55
62464;SHT31;48512;48.552;9.380;2024-02-15T07:48:43;7.51;90.54
62464;SHT31;48512;48.552;9.380;2024-02-15T07:51:15;8.46;96.24
62464;SHT31;48512;48.552;9.380;2024-02-15T07:53:42;8.60;93.40
62464;SHT31;48512;48.552;9.380;2024-02-15T07:56:09;8.63;92.19
62464;SHT31;48512;48.552;9.380;2024-02-15T07:58:42;8.59;89.41
62464;SHT31;48512;48.552;9.380;2024-02-15T08:01:13;8.59;89.24
62464;SHT31;48512;48.552;9.380;2024-02-15T08:03:40;8.60;88.99
62464;SHT31;48512;48.552;9.380;2024-02-15T08:06:13;8.64;88.91
62464;SHT31;48512;48.552;9.380;2024-02-15T08:08:44;8.64;89.06
62464;SHT31;48512;48.552;9.380;2024-02-15T08:11:12;8.71;88.98
62464;SHT31;48512;48.552;9.380;2024-02-15T08:13:45;8.78;88.82
62464;SHT31;48512;48.552;9.380;2024-02-15T08:16:12;8.87;88.63
62464;SHT31;48512;48.552;9.380;2024-02-15T08:18:44;8.98;88.42
62464;SHT31;48512;48.552;9.380;2024-02-15T08:21:12;9.12;87.97
62464;SHT31;48512;48.552;9.380;2024-02-15T08:23:38;9.30;87.74
62464;SHT31;48512;48.552;9.380;2024-02-15T08:26:05;9.40;87.53
62464;SHT31;48512;48.552;9.380;2024-02-15T08:28:31;9.54;87.10
62464;SHT31;48512;48.552;9.380;2024-02-15T08:30:57;9.73;86.72
62464;SHT31;48512;48.552;9.380;2024-02-15T08:33:26;9.87;86.33
62464;SHT31;48512;48.552;9.380;2024-02-15T08:35:54;10.06;85.98
62464;SHT31;48512;48.552;9.380;2024-02-15T08:38:23;10.28;85.81
62464;SHT31;48512;48.552;9.380;2024-02-15T08:40:49;10.55;84.04
62464;SHT31;48512;48.552;9.380;2024-02-15T08:43:15;10.85;83.15
62464;SHT31;48512;48.552;9.380;2024-02-15T08:45:42;11.18;82.65
62464;SHT31;48512;48.552;9.380;2024-02-15T08:48:10;11.54;80.89
62464;SHT31;48512;48.552;9.380;2024-02-15T08:50:36;11.79;78.91
62464;SHT31;48512;48.552;9.380;2024-02-15T08:53:02;12.01;79.06
62464;SHT31;48512;48.552;9.380;2024-02-15T08:55:32;12.13;77.87
62464;SHT31;48512;48.552;9.380;2024-02-15T08:58:01;12.28;76.87
62464;SHT31;48512;48.552;9.380;2024-02-15T09:00:28;12.41;75.67
62464;SHT31;48512;48.552;9.380;2024-02-15T09:02:54;12.58;74.78
62464;SHT31;48512;48.552;9.380;2024-02-15T09:05:23;12.70;74.29
62464;SHT31;48512;48.552;9.380;2024-02-15T09:07:50;12.82;73.73
62464;SHT31;48512;48.552;9.380;2024-02-15T09:10:42;12.97;72.81
62464;SHT31;48512;48.552;9.380;2024-02-15T09:13:09;13.10;71.87
62464;SHT31;48512;48.552;9.380;2024-02-15T09:15:35;13.17;71.77
62464;SHT31;48512;48.552;9.380;2024-02-15T09:18:01;13.33;71.30
62464;SHT31;48512;48.552;9.380;2024-02-15T09:20:27;13.36;70.95
62464;SHT31;48512;48.552;9.380;2024-02-15T09:22:57;13.37;70.34
62464;SHT31;48512;48.552;9.380;2024-02-15T09:25:24;13.50;70.66
62464;SHT31;48512;48.552;9.380;2024-02-15T09:27:50;13.62;70.33
62464;SHT31;48512;48.552;9.380;2024-02-15T09:30:17;13.78;69.78
62464;SHT31;48512;48.552;9.380;2024-02-15T09:32:44;14.06;69.41
62464;SHT31;48512;48.552;9.380;2024-02-15T09:35:11;14.21;68.84
62464;SHT31;48512;48.552;9.380;2024-02-15T09:37:42;14.41;68.80
62464;SHT31;48512;48.552;9.380;2024-02-15T09:40:10;14.54;67.78
62464;SHT31;48512;48.552;9.380;2024-02-15T09:42:38;14.75;68.03
62464;SHT31;48512;48.552;9.380;2024-02-15T09:45:06;14.93;67.93
62464;SHT31;48512;48.552;9.380;2024-02-15T09:47:36;15.26;66.67
62464;SHT31;48512;48.552;9.380;2024-02-15T09:50:12;15.58;66.93
62464;SHT31;48512;48.552;9.380;2024-02-15T09:52:40;15.57;66.27
62464;SHT31;48512;48.552;9.380;2024-02-15T09:55:09;15.68;66.02
62464;SHT31;48512;48.552;9.380;2024-02-15T09:57:39;15.73;65.96
62464;SHT31;48512;48.552;9.380;2024-02-15T10:00:08;15.64;65.24
62464;SHT31;48512;48.552;9.380;2024-02-15T10:02:35;15.77;65.83
62464;SHT31;48512;48.552;9.380;2024-02-15T10:05:02;15.84;65.10
62464;SHT31;48512;48.552;9.380;2024-02-15T10:07:28;16.16;65.34
62464;SHT31;48512;48.552;9.380;2024-02-15T10:09:54;16.39;64.79
62464;SHT31;48512;48.552;9.380;2024-02-15T10:12:21;16.43;64.41
62464;SHT31;48512;48.552;9.380;2024-02-15T10:14:51;16.63;63.76
62464;SHT31;48512;48.552;9.380;2024-02-15T10:17:18;16.57;63.59
62464;SHT31;48512;48.552;9.380;2024-02-15T10:20:02;16.76;63.48
62464;SHT31;48512;48.552;9.380;2024-02-15T10:22:28;16.81;62.66
62464;SHT31;48512;48.552;9.380;2024-02-15T10:25:11;17.04;62.24
62464;SHT31;48512;48.552;9.380;2024-02-15T10:27:38;17.15;62.06
62464;SHT31;48512;48.552;9.380;2024-02-15T10:30:14;17.43;61.69
62464;SHT31;48512;48.552;9.380;2024-02-15T10:32:43;17.72;60.71
62464;SHT31;48512;48.552;9.380;2024-02-15T10:35:09;18.11;60.20
62464;SHT31;48512;48.552;9.380;2024-02-15T10:37:36;18.39;60.06
62464;SHT31;48512;48.552;9.380;2024-02-15T10:40:05;18.60;58.59
62464;SHT31;48512;48.552;9.380;2024-02-15T10:42:36;18.29;58.82
62464;SHT31;48512;48.552;9.380;2024-02-15T10:45:03;18.56;60.54
62464;SHT31;48512;48.552;9.380;2024-02-15T10:47:30;18.94;57.98
62464;SHT31;48512;48.552;9.380;2024-02-15T10:49:57;19.45;59.19
62464;SHT31;48512;48.552;9.380;2024-02-15T10:52:31;20.09;57.45
62464;SHT31;48512;48.552;9.380;2024-02-15T10:55:03;20.54;56.29
62464;SHT31;48512;48.552;9.380;2024-02-15T10:57:37;20.63;55.61
62464;SHT31;48512;48.552;9.380;2024-02-15T11:00:04;20.36;53.17
62464;SHT31;48512;48.552;9.380;2024-02-15T11:05:24;20.88;53.78
62464;SHT31;48512;48.552;9.380;2024-02-15T11:07:50;21.19;52.91
62464;SHT31;48512;48.552;9.380;2024-02-15T11:10:17;21.55;52.72
62464;SHT31;48512;48.552;9.380;2024-02-15T11:12:44;21.71;52.09
62464;SHT31;48512;48.552;9.380;2024-02-15T11:15:10;22.10;51.90
62464;SHT31;48512;48.552;9.380;2024-02-15T11:17:45;22.39;50.73
62464;SHT31;48512;48.552;9.380;2024-02-15T11:22:59;22.88;50.34
62464;SHT31;48512;48.552;9.380;2024-02-15T11:25:35;23.05;49.49
62464;SHT31;48512;48.552;9.380;2024-02-15T11:30:53;23.33;49.39
62464;SHT31;48512;48.552;9.380;2024-02-15T11:33:32;23.48;49.37
62464;SHT31;48512;48.552;9.380;2024-02-15T11:36:12;23.56;49.85
62464;SHT31;48512;48.552;9.380;2024-02-15T11:38:43;23.56;49.53
62464;SHT31;48512;48.552;9.380;2024-02-15T11:41:10;23.81;49.35
62464;SHT31;48512;48.552;9.380;2024-02-15T11:43:47;23.97;48.86
62464;SHT31;48512;48.552;9.380;2024-02-15T11:46:27;24.17;48.49
62464;SHT31;48512;48.552;9.380;2024-02-15T11:48:58;24.11;48.70
62464;SHT31;48512;48.552;9.380;2024-02-15T11:56:53;24.44;48.02
62464;SHT31;48512;48.552;9.380;2024-02-15T11:59:31;24.63;47.16
62464;SHT31;48512;48.552;9.380;2024-02-15T12:02:08;24.76;46.75
62464;SHT31;48512;48.552;9.380;2024-02-15T12:04:53;24.68;46.88
62464;SHT31;48512;48.552;9.380;2024-02-15T12:07:38;24.63;46.90
62464;SHT31;48512;48.552;9.380;2024-02-15T12:10:22;24.75;47.14
62464;SHT31;48512;48.552;9.380;2024-02-15T12:13:07;24.68;46.93
62464;SHT31;48512;48.552;9.380;2024-02-15T12:16:00;24.63;46.72
62464;SHT31;48512;48.552;9.380;2024-02-15T12:18:45;24.56;46.87
62464;SHT31;48512;48.552;9.380;2024-02-15T12:21:22;24.42;47.05
62464;SHT31;48512;48.552;9.380;2024-02-15T12:23:49;24.55;47.45
62464;SHT31;48512;48.552;9.380;2024-02-15T12:26:19;24.77;47.15
62464;SHT31;48512;48.552;9.380;2024-02-15T12:28:54;24.69;49.42
62464;SHT31;48512;48.552;9.380;2024-02-15T12:31:21;24.75;48.86
62464;SHT31;48512;48.552;9.380;2024-02-15T12:34:07;24.83;48.52
62464;SHT31;48512;48.552;9.380;2024-02-15T12:36:34;24.91;47.82
62464;SHT31;48512;48.552;9.380;2024-02-15T12:39:04;25.09;45.67
62464;SHT31;48512;48.552;9.380;2024-02-15T12:41:40;24.70;46.29
62464;SHT31;48512;48.552;9.380;2024-02-15T12:44:07;24.31;46.78
62464;SHT31;48512;48.552;9.380;2024-02-15T12:46:36;24.05;47.74
62464;SHT31;48512;48.552;9.380;2024-02-15T12:49:28;23.96;48.41
62464;SHT31;48512;48.552;9.380;2024-02-15T12:55:15;23.93;48.55
62464;SHT31;48512;48.552;9.380;2024-02-15T12:57:44;24.04;47.83
62464;SHT31;48512;48.552;9.380;2024-02-15T13:00:12;24.01;48.46
62464;SHT31;48512;48.552;9.380;2024-02-15T13:02:48;24.15;48.47
62464;SHT31;48512;48.552;9.380;2024-02-15T13:05:16;24.32;48.13
62464;SHT31;48512;48.552;9.380;2024-02-15T13:07:45;24.26;47.77
62464;SHT31;48512;48.552;9.380;2024-02-15T13:10:12;24.15;48.52
62464;SHT31;48512;48.552;9.380;2024-02-15T13:12:44;24.21;48.31
62464;SHT31;48512;48.552;9.380;2024-02-15T13:15:12;24.18;48.53
62464;SHT31;48512;48.552;9.380;2024-02-15T13:17:44;23.83;48.15
62464;SHT31;48512;48.552;9.380;2024-02-15T13:20:14;23.45;49.06
62464;SHT31;48512;48.552;9.380;2024-02-15T13:22:42;23.04;50.08
62464;SHT31;48512;48.552;9.380;2024-02-15T13:25:09;22.77;50.03
62464;SHT31;48512;48.552;9.380;2024-02-15T13:27:36;22.64;50.70
62464;SHT31;48512;48.552;9.380;2024-02-15T13:30:05;22.32;50.95
62464;SHT31;48512;48.552;9.380;2024-02-15T13:35:06;22.08;51.28
62464;SHT31;48512;48.552;9.380;2024-02-15T13:37:42;21.92;51.96
62464;SHT31;48512;48.552;9.380;2024-02-15T13:40:10;21.73;52.27
62464;SHT31;48512;48.552;9.380;2024-02-15T13:42:46;21.57;52.64
62464;SHT31;48512;48.552;9.380;2024-02-15T13:45:16;21.75;52.49
62464;SHT31;48512;48.552;9.380;2024-02-15T13:47:46;21.68;52.22
62464;SHT31;48512;48.552;9.380;2024-02-15T13:50:13;21.61;52.83
62464;SHT31;48512;48.552;9.380;2024-02-15T13:52:46;21.54;52.76
62464;SHT31;48512;48.552;9.380;2024-02-15T13:55:16;21.51;52.58
62464;SHT31;48512;48.552;9.380;2024-02-15T13:57:44;21.40;52.26
62464;SHT31;48512;48.552;9.380;2024-02-15T14:00:14;21.33;51.57
62464;SHT31;48512;48.552;9.380;2024-02-15T14:02:53;21.27;52.08
62464;SHT31;48512;48.552;9.380;2024-02-15T14:05:21;21.09;51.92
62464;SHT31;48512;48.552;9.380;2024-02-15T14:07:50;21.00;52.47
62464;SHT31;48512;48.552;9.380;2024-02-15T14:10:22;21.07;53.13
62464;SHT31;48512;48.552;9.380;2024-02-15T14:12:48;20.99;53.68
62464;SHT31;48512;48.552;9.380;2024-02-15T14:15:15;21.02;51.63
62464;SHT31;48512;48.552;9.380;2024-02-15T14:17:43;21.03;51.89
62464;SHT31;48512;48.552;9.380;2024-02-15T14:20:13;20.96;51.54
62464;SHT31;48512;48.552;9.380;2024-02-15T14:22:40;20.98;51.44
62464;SHT31;48512;48.552;9.380;2024-02-15T14:25:07;20.92;51.37
62464;SHT31;48512;48.552;9.380;2024-02-15T14:27:34;20.98;50.84
62464;SHT31;48512;48.552;9.380;2024-02-15T14:30:00;20.86;51.51
62464;SHT31;48512;48.552;9.380;2024-02-15T14:32:45;20.88;51.84
62464;SHT31;48512;48.552;9.380;2024-02-15T14:35:32;20.69;51.20
62464;SHT31;48512;48.552;9.380;2024-02-15T14:40:33;20.57;51.48
62464;SHT31;48512;48.552;9.380;2024-02-15T14:42:59;20.43;51.89
62464;SHT31;48512;48.552;9.380;2024-02-15T14:45:25;20.26;51.85
62464;SHT31;48512;48.552;9.380;2024-02-15T14:47:52;20.24;52.10
62464;SHT31;48512;48.552;9.380;2024-02-15T14:50:19;20.21;51.89
62464;SHT31;48512;48.552;9.380;2024-02-15T14:52:47;20.19;51.67
62464;SHT31;48512;48.552;9.380;2024-02-15T14:55:16;20.05;52.32
62464;SHT31;48512;48.552;9.380;2024-02-15T14:57:43;20.00;51.71
62464;SHT31;48512;48.552;9.380;2024-02-15T15:00:09;19.93;52.14
62464;SHT31;48512;48.552;9.380;2024-02-15T15:02:37;20.05;51.86
62464;SHT31;48512;48.552;9.380;2024-02-15T15:05:04;20.06;51.37
62464;SHT31;48512;48.552;9.380;2024-02-15T15:07:48;20.06;51.25
62464;SHT31;48512;48.552;9.380;2024-02-15T15:10:33;20.03;51.17
62464;SHT31;48512;48.552;9.380;2024-02-15T15:13:17;20.03;50.93
62464;SHT31;48512;48.552;9.380;2024-02-15T15:15:44;20.06;50.93
62464;SHT31;48512;48.552;9.380;2024-02-15T15:18:12;19.93;50.81
62464;SHT31;48512;48.552;9.380;2024-02-15T15:20:38;19.86;51.05
62464;SHT31;48512;48.552;9.380;2024-02-15T15:23:05;19.73;50.72
62464;SHT31;48512;48.552;9.380;2024-02-15T15:25:36;19.59;50.77
62464;SHT31;48512;48.552;9.380;2024-02-15T15:28:03;19.35;51.54
62464;SHT31;48512;48.552;9.380;2024-02-15T15:30:32;19.34;51.89
62464;SHT31;48512;48.552;9.380;2024-02-15T15:32:58;19.34;52.10
62464;SHT31;48512;48.552;9.380;2024-02-15T15:35:27;19.27;51.93
62464;SHT31;48512;48.552;9.380;2024-02-15T15:37:57;19.13;52.23
62464;SHT31;48512;48.552;9.380;2024-02-15T15:40:23;18.94;52.39
62464;SHT31;48512;48.552;9.380;2024-02-15T15:42:49;18.77;52.94
62464;SHT31;48512;48.552;9.380;2024-02-15T15:45:15;18.65;52.57
62464;SHT31;48512;48.552;9.380;2024-02-15T15:47:42;18.48;52.85
62464;SHT31;48512;48.552;9.380;2024-02-15T15:50:08;18.42;53.25
62464;SHT31;48512;48.552;9.380;2024-02-15T15:52:37;18.29;53.64
62464;SHT31;48512;48.552;9.380;2024-02-15T15:55:04;18.04;54.01
62464;SHT31;48512;48.552;9.380;2024-02-15T15:57:42;18.02;54.87
62464;SHT31;48512;48.552;9.380;2024-02-15T16:00:11;18.05;54.82
62464;SHT31;48512;48.552;9.380;2024-02-15T16:02:42;18.00;55.01
62464;SHT31;48512;48.552;9.380;2024-02-15T16:05:09;17.84;55.25
62464;SHT31;48512;48.552;9.380;2024-02-15T16:07:38;17.77;55.85
62464;SHT31;48512;48.552;9.380;2024-02-15T16:10:09;17.52;56.67
62464;SHT31;48512;48.552;9.380;2024-02-15T16:12:38;17.40;57.39
62464;SHT31;48512;48.552;9.380;2024-02-15T16:15:07;17.22;56.92